Time;durP1;ratioP1;P1;durP2;ratioP2;P2;SDS_P1;SDS_P2;PMS_P1;PMS_P2;Temp;Humidity;BMP_temperature;BMP_pressure;BME280_temperature;BME280_humidity;BME280_pressure;Samples;Min_cycle;Max_cycle;Signal;HPM_P1;HPM_P2
2022/09/17 00:00:32;;;;;;;;;;;;;;;21.97;79.04;96088.72;589347;240;68473;-69
2022/09/17 00:03:00;;;;;;;;;;;;;;;21.98;79.08;96086.83;589320;240;65088;-69
2022/09/17 00:05:28;;;;;;;;;;;;;;;21.97;79.04;96090.60;589375;240;68848;-69
2022/09/17 00:07:56;;;;;;;;;;;;;;;21.98;79.08;96092.17;589309;240;67024;-69
2022/09/17 00:10:24;;;;;;;;;;;;;;;21.98;79.09;96082.27;589343;240;65117;-69
2022/09/17 00:12:51;;;;;;;;;;;;;;;21.98;79.09;96084.15;589322;240;69167;-69
2022/09/17 00:15:19;;;;;;;;;;;;;;;21.98;79.04;96076.91;589347;240;68756;-69
2022/09/17 00:17:46;;;;;;;;;;;;;;;21.98;79.10;96073.45;589378;240;62943;-69
2022/09/17 00:20:14;;;;;;;;;;;;;;;21.98;79.12;96070.77;589323;240;66704;-69
2022/09/17 00:22:41;;;;;;;;;;;;;;;21.97;79.11;96071.88;589343;240;66704;-69
2022/09/17 00:25:09;;;;;;;;;;;;;;;21.97;79.09;96063.85;589359;240;63906;-69
2022/09/17 00:27:36;;;;;;;;;;;;;;;21.97;79.08;96056.61;589337;240;66466;-69
2022/09/17 00:30:04;;;;;;;;;;;;;;;21.96;79.08;96046.98;589390;240;66604;-69
2022/09/17 00:32:32;;;;;;;;;;;;;;;21.97;79.17;96039.77;589309;240;63089;-69
2022/09/17 00:34:59;;;;;;;;;;;;;;;21.97;79.15;96037.09;589326;240;66954;-69
2022/09/17 00:37:27;;;;;;;;;;;;;;;21.97;79.23;96029.86;589352;240;66639;-69
2022/09/17 00:39:54;;;;;;;;;;;;;;;21.97;79.24;96037.88;589402;240;63001;-69
2022/09/17 00:42:22;;;;;;;;;;;;;;;21.98;79.24;96041.34;589418;240;66891;-68
2022/09/17 00:44:54;;;;;;;;;;;;;;;21.98;79.26;96044.02;589414;240;66768;-68
2022/09/17 00:47:29;;;;;;;;;;;;;;;21.97;79.22;96037.09;589406;240;65138;-68
2022/09/17 00:50:01;;;;;;;;;;;;;;;21.97;79.28;96045.91;589433;240;68878;-68
2022/09/17 00:52:30;;;;;;;;;;;;;;;21.97;79.31;96048.59;589118;240;68709;-69
2022/09/17 00:54:59;;;;;;;;;;;;;;;21.98;79.32;96041.34;589391;240;65104;-69
2022/09/17 00:57:27;;;;;;;;;;;;;;;21.98;79.36;96044.02;589304;240;68892;-69
2022/09/17 00:59:56;;;;;;;;;;;;;;;21.96;79.36;96033.61;589396;240;68597;-68
2022/09/17 01:02:23;;;;;;;;;;;;;;;21.97;79.37;96035.21;586380;240;65129;-69
2022/09/17 01:04:51;;;;;;;;;;;;;;;21.96;79.36;96036.28;585120;242;68977;-69
2022/09/17 01:07:22;;;;;;;;;;;;;;;21.97;79.41;96042.45;585111;242;68710;-69
2022/09/17 01:09:57;;;;;;;;;;;;;;;21.97;79.46;96051.27;584781;242;62968;-69
2022/09/17 01:12:29;;;;;;;;;;;;;;;21.97;79.49;96051.27;585180;242;68964;-69
2022/09/17 01:14:58;;;;;;;;;;;;;;;21.96;79.47;96052.33;584993;242;68198;-68
2022/09/17 01:17:27;;;;;;;;;;;;;;;21.97;79.44;96037.09;585126;242;65119;-68
2022/09/17 01:19:59;;;;;;;;;;;;;;;21.98;79.47;96036.00;585140;242;68534;-68
2022/09/17 01:22:32;;;;;;;;;;;;;;;21.96;79.50;96030.94;584758;242;66674;-68
2022/09/17 01:25:18;;;;;;;;;;;;;;;21.95;79.52;96024.02;585183;242;64089;-68
2022/09/17 01:27:47;;;;;;;;;;;;;;;21.97;79.46;96029.08;585170;242;66361;-68
2022/09/17 01:30:22;;;;;;;;;;;;;;;21.96;79.44;96020.23;585148;242;68612;-68
2022/09/17 01:32:51;;;;;;;;;;;;;;;21.97;79.49;96021.05;585112;242;64106;-68
2022/09/17 01:35:26;;;;;;;;;;;;;;;21.97;79.49;96013.02;585106;242;68526;-69
2022/09/17 01:37:58;;;;;;;;;;;;;;;21.97;79.51;96021.05;584909;242;68608;-69
2022/09/17 01:40:27;;;;;;;;;;;;;;;21.97;79.50;96010.34;583967;242;63000;-69
2022/09/17 01:42:59;;;;;;;;;;;;;;;21.95;79.48;96008.75;585158;242;68551;-69
2022/09/17 01:45:28;;;;;;;;;;;;;;;21.95;79.52;95998.05;585100;242;68704;-69
2022/09/17 01:47:58;;;;;;;;;;;;;;;21.95;79.51;96000.72;585092;242;65068;-69
2022/09/17 01:50:27;;;;;;;;;;;;;;;21.97;79.53;96005.00;585075;242;66820;-69
2022/09/17 01:52:56;;;;;;;;;;;;;;;21.96;79.50;95998.83;585030;239;66688;-69
2022/09/17 01:55:25;;;;;;;;;;;;;;;21.96;79.47;96006.86;585132;242;65084;-69
2022/09/17 01:57:54;;;;;;;;;;;;;;;21.97;79.52;96005.00;585054;242;68917;-69
2022/09/17 02:00:23;;;;;;;;;;;;;;;21.95;79.51;95992.70;585056;242;68603;-69
2022/09/17 02:02:55;;;;;;;;;;;;;;;21.96;79.56;96004.19;588907;240;63017;-69
2022/09/17 02:05:28;;;;;;;;;;;;;;;21.96;79.54;95993.48;589376;240;66681;-69
2022/09/17 02:08:00;;;;;;;;;;;;;;;21.96;79.62;95998.83;589018;240;66669;-69
2022/09/17 02:10:28;;;;;;;;;;;;;;;21.96;79.59;95998.83;589252;240;62999;-69
2022/09/17 02:12:58;;;;;;;;;;;;;;;21.95;79.60;95990.02;589321;240;68860;-68
2022/09/17 02:15:29;;;;;;;;;;;;;;;21.95;79.62;95990.02;589359;240;68648;-68
2022/09/17 02:18:04;;;;;;;;;;;;;;;21.95;79.67;95992.70;589273;240;65090;-68
2022/09/17 02:20:33;;;;;;;;;;;;;;;21.96;79.62;95982.78;589323;240;69004;-68
2022/09/17 02:23:02;;;;;;;;;;;;;;;21.95;79.67;95992.70;589160;240;68969;-68
2022/09/17 02:25:47;;;;;;;;;;;;;;;21.95;79.65;96005.28;589297;240;65072;-68
2022/09/17 02:28:17;;;;;;;;;;;;;;;21.95;79.61;95998.05;589394;240;68832;-68
2022/09/17 02:30:44;;;;;;;;;;;;;;;21.96;79.62;96004.19;589097;240;68199;-69
2022/09/17 02:33:14;;;;;;;;;;;;;;;21.95;79.67;95995.38;589377;240;65409;-69
2022/09/17 02:35:43;;;;;;;;;;;;;;;21.95;79.65;95984.67;589381;240;68620;-69
2022/09/17 02:38:11;;;;;;;;;;;;;;;21.95;79.70;95968.63;589326;240;68721;-69
2022/09/17 02:40:40;;;;;;;;;;;;;;;21.94;79.66;95961.70;589417;240;63846;-69
2022/09/17 02:43:12;;;;;;;;;;;;;;;21.96;79.72;95950.68;589016;240;66418;-69
2022/09/17 02:45:47;;;;;;;;;;;;;;;21.95;79.71;95936.52;589117;240;68410;-69
2022/09/17 02:48:19;;;;;;;;;;;;;;;21.95;79.64;95928.50;589224;240;63210;-69
2022/09/17 02:51:03;;;;;;;;;;;;;;;21.97;79.68;95932.77;589189;240;66428;-68
2022/09/17 02:53:32;;;;;;;;;;;;;;;21.94;79.66;95929.60;588996;240;68411;-69
2022/09/17 02:56:01;;;;;;;;;;;;;;;21.94;79.70;95915.44;589405;240;64951;-69
2022/09/17 02:58:33;;;;;;;;;;;;;;;21.95;79.67;95908.98;589180;240;66211;-69
2022/09/17 03:01:02;;;;;;;;;;;;;;;21.97;79.72;95906.02;589228;240;66395;-69
2022/09/17 03:03:43;;;;;;;;;;;;;;;21.95;79.69;95912.45;589354;240;65127;-69
2022/09/17 03:06:12;;;;;;;;;;;;;;;21.95;79.73;95917.02;589363;240;66626;-69
2022/09/17 03:08:40;;;;;;;;;;;;;;;21.95;79.74;95922.36;589358;240;68531;-69
2022/09/17 03:11:08;;;;;;;;;;;;;;;21.95;79.72;95920.47;589412;240;62977;-69
2022/09/17 03:13:36;;;;;;;;;;;;;;;21.94;79.79;95918.91;589359;240;68540;-69
2022/09/17 03:16:04;;;;;;;;;;;;;;;21.96;79.78;95902.53;589380;240;68406;-69
2022/09/17 03:18:32;;;;;;;;;;;;;;;21.95;79.82;95884.91;589366;240;63094;-69
2022/09/17 03:20:59;;;;;;;;;;;;;;;21.94;79.84;95881.45;589387;240;66411;-69
2022/09/17 03:23:27;;;;;;;;;;;;;;;21.94;79.79;95892.16;589393;240;68220;-69
2022/09/17 03:25:54;;;;;;;;;;;;;;;21.94;79.76;95886.02;589370;240;65137;-69
2022/09/17 03:28:22;;;;;;;;;;;;;;;21.95;79.81;95896.39;589358;240;68572;-68
2022/09/17 03:30:49;;;;;;;;;;;;;;;21.94;79.79;95886.80;589353;240;68572;-68
2022/09/17 03:33:17;;;;;;;;;;;;;;;21.95;79.74;95884.91;589354;240;65061;-68
2022/09/17 03:35:45;;;;;;;;;;;;;;;21.94;79.75;95894.05;589365;240;68514;-68
2022/09/17 03:38:13;;;;;;;;;;;;;;;21.95;79.77;95893.72;589376;240;66445;-69
2022/09/17 03:40:40;;;;;;;;;;;;;;;21.95;79.79;95893.72;589379;240;63120;-69
2022/09/17 03:43:08;;;;;;;;;;;;;;;21.95;79.79;95891.05;589355;240;68574;-69
2022/09/17 03:45:35;;;;;;;;;;;;;;;21.93;79.75;95874.53;589403;240;68157;-68
2022/09/17 03:48:03;;;;;;;;;;;;;;;21.94;79.76;95868.08;589400;240;65164;-68
2022/09/17 03:50:31;;;;;;;;;;;;;;;21.95;79.82;95876.89;589390;240;66348;-68
2022/09/17 03:52:58;;;;;;;;;;;;;;;21.95;79.80;95872.32;589334;240;68716;-68
2022/09/17 03:55:26;;;;;;;;;;;;;;;21.94;79.77;95868.08;589358;240;62985;-68
2022/09/17 03:57:54;;;;;;;;;;;;;;;21.94;79.83;95862.73;589381;240;66361;-68
2022/09/17 04:00:22;;;;;;;;;;;;;;;21.94;79.80;95861.94;589337;240;68464;-68
2022/09/17 04:02:49;;;;;;;;;;;;;;;21.95;79.81;95861.63;589355;240;65033;-68
2022/09/17 04:05:17;;;;;;;;;;;;;;;21.94;79.84;95854.70;589311;240;66375;-68
2022/09/17 04:07:44;;;;;;;;;;;;;;;21.95;79.85;95855.48;589359;240;66442;-69
2022/09/17 04:10:12;;;;;;;;;;;;;;;21.94;79.85;95862.73;589386;240;63049;-69
2022/09/17 04:12:39;;;;;;;;;;;;;;;21.94;79.85;95857.38;589404;240;68249;-69
2022/09/17 04:15:07;;;;;;;;;;;;;;;21.93;79.86;95853.13;589344;240;68538;-69
2022/09/17 04:17:35;;;;;;;;;;;;;;;21.95;79.83;95858.16;589334;240;63046;-69
2022/09/17 04:20:03;;;;;;;;;;;;;;;21.94;79.83;95857.38;589366;240;66740;-69
2022/09/17 04:22:31;;;;;;;;;;;;;;;21.94;79.88;95849.35;589356;240;68483;-68
2022/09/17 04:24:58;;;;;;;;;;;;;;;21.95;79.88;95863.52;589403;240;65116;-68
2022/09/17 04:27:26;;;;;;;;;;;;;;;21.94;79.85;95856.59;589367;240;68569;-68
2022/09/17 04:29:53;;;;;;;;;;;;;;;21.94;79.83;95862.73;589318;240;68655;-68
2022/09/17 04:32:21;;;;;;;;;;;;;;;21.94;79.90;95859.27;589362;240;65041;-68
2022/09/17 04:34:48;;;;;;;;;;;;;;;21.94;79.91;95854.70;589382;240;66370;-68
2022/09/17 04:37:16;;;;;;;;;;;;;;;21.94;79.92;95848.56;589390;240;68754;-68
2022/09/17 04:39:43;;;;;;;;;;;;;;;21.93;79.94;95853.13;589385;240;63076;-68
2022/09/17 04:42:11;;;;;;;;;;;;;;;21.94;79.90;95861.94;589339;240;66391;-68
2022/09/17 04:44:38;;;;;;;;;;;;;;;21.94;79.95;95853.92;589350;240;66411;-68
2022/09/17 04:47:06;;;;;;;;;;;;;;;21.94;79.95;95854.70;589351;240;65117;-68
2022/09/17 04:49:33;;;;;;;;;;;;;;;21.93;79.98;95850.45;589405;240;68714;-68
2022/09/17 04:52:01;;;;;;;;;;;;;;;21.93;79.97;95839.76;589357;240;68562;-68
2022/09/17 04:54:28;;;;;;;;;;;;;;;21.93;79.95;95839.76;589347;240;65220;-68
2022/09/17 04:56:56;;;;;;;;;;;;;;;21.94;80.02;95844.00;589369;240;68487;-68
2022/09/17 04:59:24;;;;;;;;;;;;;;;21.93;79.97;95826.39;589373;240;66098;-68
2022/09/17 05:01:51;;;;;;;;;;;;;;;21.94;80.04;95835.98;587304;240;63085;-68
2022/09/17 05:04:19;;;;;;;;;;;;;;;21.94;80.04;95840.55;585085;242;66305;-68
2022/09/17 05:06:47;;;;;;;;;;;;;;;21.94;80.06;95846.67;585053;242;66632;-68
2022/09/17 05:09:14;;;;;;;;;;;;;;;21.93;80.07;95845.11;585052;242;63858;-67
2022/09/17 05:11:42;;;;;;;;;;;;;;;21.94;80.08;95843.22;585223;242;66364;-67
2022/09/17 05:14:09;;;;;;;;;;;;;;;21.94;80.03;95837.87;585047;242;66476;-68
2022/09/17 05:16:37;;;;;;;;;;;;;;;21.91;80.03;95841.94;585124;242;65180;-69
2022/09/17 05:19:04;;;;;;;;;;;;;;;21.95;80.19;95847.46;585034;242;68453;-68
2022/09/17 05:21:32;;;;;;;;;;;;;;;21.94;80.15;95851.24;585069;242;67971;-68
2022/09/17 05:24:00;;;;;;;;;;;;;;;21.94;80.18;95861.94;585063;242;65002;-68
2022/09/17 05:26:28;;;;;;;;;;;;;;;21.93;80.24;95861.16;584787;242;65885;-69
2022/09/17 05:28:55;;;;;;;;;;;;;;;21.93;80.18;95850.45;585149;242;68172;-68
2022/09/17 05:31:23;;;;;;;;;;;;;;;21.94;80.27;95860.05;585114;242;65059;-68
2022/09/17 05:33:50;;;;;;;;;;;;;;;21.93;80.25;95869.19;585129;242;68698;-68
2022/09/17 05:36:18;;;;;;;;;;;;;;;21.93;80.26;95860.34;585109;242;66013;-68
2022/09/17 05:38:45;;;;;;;;;;;;;;;21.93;80.32;95866.51;585116;242;62952;-68
2022/09/17 05:41:13;;;;;;;;;;;;;;;21.93;80.30;95869.19;585172;242;66153;-68
2022/09/17 05:43:42;;;;;;;;;;;;;;;21.93;80.30;95855.81;585121;242;68382;-68
2022/09/17 05:46:09;;;;;;;;;;;;;;;21.92;80.41;95864.91;585096;242;63049;-68
2022/09/17 05:48:37;;;;;;;;;;;;;;;21.94;80.41;95875.31;585113;242;68535;-68
2022/09/17 05:51:04;;;;;;;;;;;;;;;21.93;80.41;95874.53;585109;242;68480;-68
2022/09/17 05:53:32;;;;;;;;;;;;;;;21.93;80.46;95879.88;585140;242;65076;-68
2022/09/17 05:56:00;;;;;;;;;;;;;;;21.92;80.40;95877.50;585089;242;68675;-68
2022/09/17 05:58:28;;;;;;;;;;;;;;;21.93;80.50;95893.25;585064;242;68479;-68
2022/09/17 06:00:55;;;;;;;;;;;;;;;21.94;80.47;95899.39;585473;240;63234;-68
2022/09/17 06:03:23;;;;;;;;;;;;;;;21.91;80.46;95884.73;589387;240;66377;-68
2022/09/17 06:05:54;;;;;;;;;;;;;;;21.93;80.43;95893.25;589351;240;68540;-68
2022/09/17 06:08:22;;;;;;;;;;;;;;;21.93;80.40;95889.77;589427;240;64919;-69
2022/09/17 06:10:49;;;;;;;;;;;;;;;21.93;80.43;95903.95;589365;240;66416;-68
2022/09/17 06:13:17;;;;;;;;;;;;;;;21.93;80.43;95900.47;589400;240;68177;-68
2022/09/17 06:15:51;;;;;;;;;;;;;;;21.92;81.97;95904.25;589376;240;65172;-68
2022/09/17 06:18:21;;;;;;;;;;;;;;;21.92;80.60;95898.89;589403;240;48112;-68
2022/09/17 06:20:55;;;;;;;;;;;;;;;21.92;80.26;95898.89;589393;240;66847;-68
2022/09/17 06:23:23;;;;;;;;;;;;;;;21.93;80.21;95906.63;589382;240;65126;-68
2022/09/17 06:25:52;;;;;;;;;;;;;;;21.93;80.15;95909.30;589364;240;66233;-68
2022/09/17 06:28:19;;;;;;;;;;;;;;;21.93;80.27;95903.95;589375;240;66424;-68
2022/09/17 06:30:47;;;;;;;;;;;;;;;21.94;80.33;95905.52;589364;240;63151;-68
2022/09/17 06:33:15;;;;;;;;;;;;;;;21.94;80.51;95905.52;589361;240;68624;-68
2022/09/17 06:35:42;;;;;;;;;;;;;;;21.95;80.62;95903.64;589361;240;66925;-68
2022/09/17 06:38:10;;;;;;;;;;;;;;;21.95;80.69;95909.77;589367;240;63191;-68
2022/09/17 06:40:37;;;;;;;;;;;;;;;21.97;80.87;95916.72;589375;240;68388;-68
2022/09/17 06:43:05;;;;;;;;;;;;;;;21.95;81.12;95899.07;589342;240;68860;-68
2022/09/17 06:45:32;;;;;;;;;;;;;;;21.96;81.20;95897.18;589313;240;65279;-68
2022/09/17 06:48:01;;;;;;;;;;;;;;;21.97;81.38;95906.02;589386;240;67131;-68
2022/09/17 06:50:29;;;;;;;;;;;;;;;21.97;81.33;95925.53;589355;240;66936;-69
2022/09/17 06:52:56;;;;;;;;;;;;;;;21.97;81.56;95924.75;589341;240;65248;-68
2022/09/17 06:55:24;;;;;;;;;;;;;;;21.97;81.69;95914.05;589350;240;68949;-68
2022/09/17 06:57:51;;;;;;;;;;;;;;;21.98;81.93;95903.02;589345;240;66800;-68
2022/09/17 07:00:19;;;;;;;;;;;;;;;21.97;82.17;95909.48;589357;240;64937;-68
2022/09/17 07:02:59;;;;;;;;;;;;;;;21.97;82.05;95909.48;585661;240;68696;-68
2022/09/17 07:05:28;;;;;;;;;;;;;;;21.98;82.12;95900.35;580059;242;66386;-68
2022/09/17 07:07:56;;;;;;;;;;;;;;;21.98;82.28;95896.89;585059;242;62901;-68
2022/09/17 07:10:23;;;;;;;;;;;;;;;21.98;82.32;95895.00;585035;242;66590;-68
2022/09/17 07:12:51;;;;;;;;;;;;;;;21.98;82.36;95889.66;585063;242;66527;-68
2022/09/17 07:15:18;;;;;;;;;;;;;;;21.97;82.42;95882.73;585059;242;65151;-68
2022/09/17 07:17:46;;;;;;;;;;;;;;;21.98;82.39;95888.86;585075;242;66432;-68
2022/09/17 07:20:13;;;;;;;;;;;;;;;21.98;82.44;95886.97;585070;242;68671;-68
2022/09/17 07:22:41;;;;;;;;;;;;;;;21.99;82.37;95890.44;585063;242;65293;-69
2022/09/17 07:25:09;;;;;;;;;;;;;;;22.00;82.27;95900.06;585043;242;68780;-68
2022/09/17 07:27:36;;;;;;;;;;;;;;;21.99;82.40;95891.25;585141;242;68473;-68
2022/09/17 07:30:04;;;;;;;;;;;;;;;21.99;82.46;95882.41;585075;242;63093;-68
2022/09/17 07:32:32;;;;;;;;;;;;;;;21.99;82.47;95880.55;585074;242;66570;-69
2022/09/17 07:34:59;;;;;;;;;;;;;;;22.00;82.41;95870.63;585043;242;69161;-68
2022/09/17 07:37:27;;;;;;;;;;;;;;;22.00;82.46;95892.82;585024;242;65306;-68
2022/09/17 07:39:54;;;;;;;;;;;;;;;21.99;82.36;95893.92;585098;242;68729;-68
2022/09/17 07:42:22;;;;;;;;;;;;;;;22.00;82.34;95897.38;585044;242;68742;-68
2022/09/17 07:44:49;;;;;;;;;;;;;;;22.00;82.40;95903.52;585045;242;64939;-68
2022/09/17 07:47:17;;;;;;;;;;;;;;;22.00;82.40;95902.73;585057;242;69174;-68
2022/09/17 07:49:44;;;;;;;;;;;;;;;22.00;82.35;95918.78;585062;242;68849;-68
2022/09/17 07:52:12;;;;;;;;;;;;;;;22.01;82.37;95920.36;585099;242;65270;-68
2022/09/17 07:54:39;;;;;;;;;;;;;;;22.00;82.35;95918.78;585066;242;68518;-68
2022/09/17 07:57:07;;;;;;;;;;;;;;;22.01;82.32;95925.70;585022;242;68683;-69
2022/09/17 07:59:34;;;;;;;;;;;;;;;22.00;82.33;95922.25;585053;242;64929;-68
2022/09/17 08:02:02;;;;;;;;;;;;;;;22.02;82.38;95927.31;587371;240;67058;-69
2022/09/17 08:04:29;;;;;;;;;;;;;;;22.00;82.34;95924.92;589335;240;66538;-68
2022/09/17 08:06:57;;;;;;;;;;;;;;;22.00;82.36;95929.48;589330;240;63346;-68
2022/09/17 08:09:24;;;;;;;;;;;;;;;22.00;82.32;95922.25;589312;240;66851;-69
2022/09/17 08:11:52;;;;;;;;;;;;;;;22.00;82.39;95932.95;589323;240;66595;-68
2022/09/17 08:14:19;;;;;;;;;;;;;;;22.00;82.26;95940.97;589316;240;64953;-68
2022/09/17 08:16:47;;;;;;;;;;;;;;;22.02;82.30;95943.36;589351;240;68817;-68
2022/09/17 08:19:14;;;;;;;;;;;;;;;22.02;82.34;95954.06;589347;240;68604;-68
2022/09/17 08:21:42;;;;;;;;;;;;;;;22.01;82.35;95936.41;589339;240;64945;-68
2022/09/17 08:24:09;;;;;;;;;;;;;;;22.01;82.45;95915.79;589305;240;68865;-68
2022/09/17 08:26:39;;;;;;;;;;;;;;;22.02;82.46;95911.25;589341;240;68733;-68
2022/09/17 08:29:06;;;;;;;;;;;;;;;22.02;82.47;95913.93;589332;240;64906;-68
2022/09/17 08:31:33;;;;;;;;;;;;;;;22.01;82.41;95909.66;589345;240;68690;-68
2022/09/17 08:34:01;;;;;;;;;;;;;;;22.02;82.45;95901.34;589334;240;68489;-68
2022/09/17 08:36:28;;;;;;;;;;;;;;;22.02;82.38;95889.85;589331;240;65268;-68
2022/09/17 08:38:57;;;;;;;;;;;;;;;22.02;82.48;95889.85;589333;240;69151;-69
2022/09/17 08:41:29;;;;;;;;;;;;;;;22.02;82.49;95869.23;589355;240;66282;-69
2022/09/17 08:43:58;;;;;;;;;;;;;;;22.01;82.49;95854.27;589356;240;65089;-68
2022/09/17 08:46:26;;;;;;;;;;;;;;;22.02;82.36;95858.53;588264;240;69085;-68
2022/09/17 08:48:58;;;;;;;;;;;;;;;22.00;82.44;95858.05;589319;240;68979;-68
2022/09/17 08:51:30;;;;;;;;;;;;;;;22.02;82.39;95852.40;589328;240;62889;-69
2022/09/17 08:54:02;;;;;;;;;;;;;;;22.02;82.40;95847.05;580588;240;66880;-68
2022/09/17 08:56:31;;;;;;;;;;;;;;;22.02;82.33;95857.75;589016;240;68817;-68
2022/09/17 08:59:07;;;;;;;;;;;;;;;22.02;82.29;95857.75;589378;240;65237;-68
2022/09/17 09:01:52;;;;;;;;;;;;;;;22.02;82.44;95850.51;587677;240;66570;-69
2022/09/17 09:04:21;;;;;;;;;;;;;;;22.01;82.55;95840.88;585091;242;68520;-68
2022/09/17 09:06:50;;;;;;;;;;;;;;;22.02;82.69;95839.02;584790;242;65413;-68
2022/09/17 09:09:20;;;;;;;;;;;;;;;22.02;82.85;95839.81;585103;242;68466;-68
2022/09/17 09:11:49;;;;;;;;;;;;;;;22.02;82.82;95826.43;585093;242;66854;-68
2022/09/17 09:14:20;;;;;;;;;;;;;;;22.02;82.96;95829.11;585108;242;63174;-68
2022/09/17 09:16:49;;;;;;;;;;;;;;;22.02;82.95;95839.02;585091;242;66766;-68
2022/09/17 09:19:18;;;;;;;;;;;;;;;22.03;83.06;95837.92;585101;242;68654;-68
2022/09/17 09:21:51;;;;;;;;;;;;;;;22.02;83.04;95831.00;585069;242;65087;-68
2022/09/17 09:24:23;;;;;;;;;;;;;;;22.02;83.09;95821.08;585097;242;66631;-69
2022/09/17 09:26:58;;;;;;;;;;;;;;;22.02;83.10;95820.30;584810;242;66660;-69
2022/09/17 09:29:33;;;;;;;;;;;;;;;22.02;83.08;95821.08;584941;242;63015;-68
2022/09/17 09:32:14;;;;;;;;;;;;;;;22.02;83.03;95829.11;585113;242;68511;-68
2022/09/17 09:34:42;;;;;;;;;;;;;;;22.03;83.11;95827.22;585089;242;66425;-68
2022/09/17 09:37:17;;;;;;;;;;;;;;;22.02;83.13;95821.08;585082;242;63151;-68
2022/09/17 09:39:46;;;;;;;;;;;;;;;22.02;83.00;95831.00;585064;242;68728;-69
2022/09/17 09:42:18;;;;;;;;;;;;;;;22.03;83.02;95837.92;585144;242;50051;-69
2022/09/17 09:44:45;;;;;;;;;;;;;;;22.02;83.03;95831.78;585141;242;65032;-69
2022/09/17 09:47:14;;;;;;;;;;;;;;;22.02;83.08;95837.13;585107;242;68379;-68
2022/09/17 09:49:55;;;;;;;;;;;;;;;22.02;83.02;95831.00;585111;242;68633;-68
2022/09/17 09:52:24;;;;;;;;;;;;;;;22.02;83.01;95823.76;584918;241;63847;-68
2022/09/17 09:55:10;;;;;;;;;;;;;;;22.02;82.99;95825.65;584904;242;66283;-68
2022/09/17 09:57:45;;;;;;;;;;;;;;;22.02;83.01;95825.65;585087;242;66325;-68
2022/09/17 10:00:15;;;;;;;;;;;;;;;22.03;83.04;95824.54;584885;242;65169;-68
2022/09/17 10:02:41;;;;;;;;;;;;;;;22.02;83.03;95831.78;588278;239;66168;-68
2022/09/17 10:05:09;;;;;;;;;;;;;;;22.03;82.99;95827.22;593603;239;66791;-68
2022/09/17 10:07:43;;;;;;;;;;;;;;;22.03;83.02;95832.56;593699;239;63015;-68
2022/09/17 10:10:11;;;;;;;;;;;;;;;22.02;83.00;95834.45;593689;239;66733;-68
2022/09/17 10:12:38;;;;;;;;;;;;;;;22.03;83.02;95837.92;593727;239;66626;-68
2022/09/17 10:15:19;;;;;;;;;;;;;;;22.03;83.01;95833.34;593708;239;63986;-68
2022/09/17 10:17:47;;;;;;;;;;;;;;;22.02;82.96;95834.45;593518;239;68736;-68
2022/09/17 10:20:16;;;;;;;;;;;;;;;22.03;83.00;95838.70;593686;239;68868;-68
2022/09/17 10:22:45;;;;;;;;;;;;;;;22.03;82.99;95845.95;593723;239;65375;-68
2022/09/17 10:25:30;;;;;;;;;;;;;;;22.03;83.03;95844.05;593725;239;66211;-68
2022/09/17 10:27:58;;;;;;;;;;;;;;;22.04;82.98;95850.19;593727;239;66785;-68
2022/09/17 10:30:28;;;;;;;;;;;;;;;22.03;82.95;95859.31;593665;239;62912;-68
2022/09/17 10:33:13;;;;;;;;;;;;;;;22.02;82.94;95855.86;593675;239;67083;-68
2022/09/17 10:35:40;;;;;;;;;;;;;;;22.03;82.86;95861.99;593698;239;68816;-68
2022/09/17 10:38:09;;;;;;;;;;;;;;;22.03;82.90;95867.34;593677;239;64871;-68
2022/09/17 10:40:37;;;;;;;;;;;;;;;22.04;82.83;95882.29;592838;239;68772;-68
2022/09/17 10:43:15;;;;;;;;;;;;;;;22.03;82.78;95876.16;593704;239;67321;-69
2022/09/17 10:45:44;;;;;;;;;;;;;;;22.04;82.81;95892.99;593679;239;65045;-68
2022/09/17 10:48:13;;;;;;;;;;;;;;;22.03;82.84;95894.88;592693;239;69085;-68
2022/09/17 10:50:41;;;;;;;;;;;;;;;22.03;82.70;95902.91;593648;239;68741;-68
2022/09/17 10:53:10;;;;;;;;;;;;;;;22.04;82.78;95898.34;593680;239;63699;-68
2022/09/17 10:55:39;;;;;;;;;;;;;;;22.04;82.78;95911.72;593463;239;69023;-68
2022/09/17 10:58:08;;;;;;;;;;;;;;;22.04;82.72;95925.09;593655;239;66527;-68
2022/09/17 11:00:40;;;;;;;;;;;;;;;22.04;82.70;95930.45;593685;239;62936;-68
2022/09/17 11:03:12;;;;;;;;;;;;;;;22.05;82.60;95953.45;593548;239;68835;-68
2022/09/17 11:05:41;;;;;;;;;;;;;;;22.06;82.48;95992.48;593683;239;66793;-68
2022/09/17 11:08:13;;;;;;;;;;;;;;;22.05;82.59;96006.95;589335;239;62969;-68
2022/09/17 11:10:54;;;;;;;;;;;;;;;22.06;82.49;96051.34;585130;239;68886;-68
2022/09/17 11:13:38;;;;;;;;;;;;;;;22.05;82.50;96093.36;593557;239;68618;-68
2022/09/17 11:16:13;;;;;;;;;;;;;;;22.05;82.42;96088.01;593673;239;63069;-69
2022/09/17 11:18:51;;;;;;;;;;;;;;;22.06;82.77;96072.74;593454;239;66580;-68
2022/09/17 11:21:20;;;;;;;;;;;;;;;22.05;82.75;96063.93;593225;237;69220;-68
2022/09/17 11:23:58;;;;;;;;;;;;;;;22.05;82.85;96047.09;593487;239;64966;-68
2022/09/17 11:26:39;;;;;;;;;;;;;;;22.05;82.89;96028.36;593355;239;68930;-68
2022/09/17 11:29:27;;;;;;;;;;;;;;;22.04;82.81;96005.36;593662;239;68856;-69
2022/09/17 11:32:14;;;;;;;;;;;;;;;22.06;80.83;96003.18;593745;239;65328;-69
2022/09/17 11:34:46;;;;;;;;;;;;;;;22.08;80.42;95984.95;579013;244;68717;-68
2022/09/17 11:37:27;;;;;;;;;;;;;;;22.07;81.45;95980.67;578991;245;66762;-68
2022/09/17 11:39:56;;;;;;;;;;;;;;;22.06;82.61;95971.07;585826;239;62898;-68
2022/09/17 11:42:35;;;;;;;;;;;;;;;22.05;82.94;95969.50;593709;239;68704;-68
2022/09/17 11:45:03;;;;;;;;;;;;;;;22.04;83.15;95952.63;593687;239;66632;-68
2022/09/17 11:47:33;;;;;;;;;;;;;;;22.04;83.10;95943.83;593688;239;63247;-68
2022/09/17 11:50:02;;;;;;;;;;;;;;;22.04;82.98;95951.84;593306;239;66938;-68
2022/09/17 11:52:34;;;;;;;;;;;;;;;22.03;82.93;95959.09;593667;239;68691;-68
2022/09/17 11:55:19;;;;;;;;;;;;;;;22.02;82.83;95948.70;593684;239;65059;-68
2022/09/17 11:57:49;;;;;;;;;;;;;;;22.03;82.68;95918.17;593720;239;68864;-67
2022/09/17 12:00:17;;;;;;;;;;;;;;;22.03;82.63;95918.17;593657;239;68616;-67
2022/09/17 12:02:55;;;;;;;;;;;;;;;22.02;82.51;95905.91;586340;239;63016;-67
2022/09/17 12:05:41;;;;;;;;;;;;;;;22.02;82.44;95895.98;585117;242;67439;-67
2022/09/17 12:08:13;;;;;;;;;;;;;;;22.00;82.33;95866.06;585025;242;66741;-67
2022/09/17 12:10:42;;;;;;;;;;;;;;;22.02;82.27;95849.73;583864;242;65291;-67
2022/09/17 12:13:14;;;;;;;;;;;;;;;22.01;82.22;95842.77;585006;242;68927;-67
2022/09/17 12:15:44;;;;;;;;;;;;;;;22.02;82.21;95844.38;585033;242;66607;-67
2022/09/17 12:18:13;;;;;;;;;;;;;;;22.01;82.15;95851.58;585057;242;65188;-67
2022/09/17 12:20:42;;;;;;;;;;;;;;;22.03;82.17;95864.67;585063;242;68735;-67
2022/09/17 12:23:14;;;;;;;;;;;;;;;22.03;82.18;95864.67;584987;242;68621;-67
2022/09/17 12:25:49;;;;;;;;;;;;;;;22.02;82.12;95865.77;585044;242;63008;-67
2022/09/17 12:28:22;;;;;;;;;;;;;;;22.02;82.13;95882.61;584685;242;66700;-67
2022/09/17 12:30:51;;;;;;;;;;;;;;;22.02;82.11;95873.80;584238;242;66579;-68
2022/09/17 12:33:26;;;;;;;;;;;;;;;22.02;82.06;95863.09;584221;242;65088;-68
2022/09/17 12:35:58;;;;;;;;;;;;;;;22.01;82.06;95878.34;584971;242;68846;-68
2022/09/17 12:38:30;;;;;;;;;;;;;;;22.01;82.05;95856.16;585028;242;66986;-68
2022/09/17 12:41:14;;;;;;;;;;;;;;;22.01;82.05;95872.98;585072;242;63024;-68
2022/09/17 12:43:43;;;;;;;;;;;;;;;22.02;82.06;95879.16;585016;242;69081;-68
2022/09/17 12:46:21;;;;;;;;;;;;;;;22.02;82.01;95882.61;584868;242;68698;-68
2022/09/17 12:48:56;;;;;;;;;;;;;;;22.02;81.97;95860.42;584830;242;65129;-68
2022/09/17 12:51:28;;;;;;;;;;;;;;;22.02;81.98;95852.40;584861;242;68857;-68
2022/09/17 12:54:03;;;;;;;;;;;;;;;22.02;81.94;95841.70;585086;242;68680;-68
2022/09/17 12:56:32;;;;;;;;;;;;;;;22.01;81.99;95840.09;584817;242;63837;-68
2022/09/17 12:59:10;;;;;;;;;;;;;;;22.01;82.00;95853.48;585025;242;68613;-68
2022/09/17 13:01:42;;;;;;;;;;;;;;;22.01;82.01;95867.63;586685;240;66627;-68